Pagrindinis puslapis
METAR-TAF:

METAR-TAF

Oro uostai :

Cayo Coco, Kuba

platuma: 22-27-40N, ilguma: 078-19-42W, Aukštis: 4 m

Dabartinis oras

Ataskaita buvo paskelbta 56 minutes, ne 05:50 UTC
Vėjas 6 kt iš Šiaurės Rytų
Temperatūra 25°C
Drėgmė 79%
Slėgis 1018 hPa
Matomumas: 9000 m
Mažai debesys ne aukštis 2000 ft

METAR: MUCC 020550Z 04006KT 9000 FEW020 25/21 Q1018

Laikas: 01:46 (06:46 UTC)

Prognozė

Ataskaita buvo paskelbta 1 valandą ir 46 minutes, ne 05:00 UTC
Prognozė galioja nuo 02 metu 06 UTC su 03 metu 06 UTC
Vėjas 3 kt nuo kintamojo kryptimis
Matomumas: 9000 m
Išsisklaidę debesys ne aukštis 2000 ft
Tapsmas
nuo 02 metu 13 UTC su 02 metu 15 UTC
Vėjas 10 kt iš Šiaurės Rytų
Tapsmas
nuo 03 metu 01 UTC su 03 metu 03 UTC
Vėjas 3 kt nuo kintamojo kryptimis

TAF: MUCC 020500Z 0206/0306 VRB03KT 9000 SCT020 BECMG 0213/0215 04010KT BECMG 0301/0303 VRB03KT

Orai ataskaitas ir orų prognozės (METAR, TAF).

turimą stotys yra geltonos ir raudonos taškus žemėlapyje.

Perkelti pele per norėdami pamatyti stoties vardą.

Tada spustelėkite, norėdami matyti oro stebėjimo ir prognozės.

Norėdami pakeisti žemėlapį: spustelėkite ant žalios mygtukų su juodo kryžiaus žemyn,; žalią mygtuką su brūkšneliu, jei norite nutolinti; arba žalių rodyklių gretimoms žemėlapius.


METAR-TAF: